Time;durP1;ratioP1;P1;durP2;ratioP2;P2;SDS_P1;SDS_P2;PMS_P1;PMS_P2;Temp;Humidity;BMP_temperature;BMP_pressure;BME280_temperature;BME280_humidity;BME280_pressure;Samples;Min_cycle;Max_cycle;Signal;HPM_P1;HPM_P2
2023/04/24 00:00:31;;;;;;;9.82;8.82;;;10.20;57.40;;;;;;4948913;28;20173;-79
2023/04/24 00:02:57;;;;;;;9.55;8.65;;;10.10;57.20;;;;;;4943774;28;20035;-80
2023/04/24 00:05:24;;;;;;;8.68;7.88;;;10.10;57.30;;;;;;4939299;28;20051;-79
2023/04/24 00:07:52;;;;;;;9.68;8.63;;;10.00;57.10;;;;;;4935041;28;20037;-80
2023/04/24 00:10:18;;;;;;;9.85;8.95;;;10.00;57.10;;;;;;4940580;28;20426;-80
2023/04/24 00:12:44;;;;;;;11.00;8.48;;;10.00;57.20;;;;;;4937249;28;20846;-79
2023/04/24 00:15:10;;;;;;;10.00;9.02;;;10.00;57.30;;;;;;4958448;28;20047;-80
2023/04/24 00:17:36;;;;;;;9.35;8.55;;;9.90;57.10;;;;;;4941836;29;20086;-80
2023/04/24 00:20:04;;;;;;;8.68;7.85;;;9.90;57.20;;;;;;4950170;28;20486;-81
2023/04/24 00:22:31;;;;;;;8.60;7.75;;;9.90;57.20;;;;;;4933770;28;20035;-80
2023/04/24 00:24:57;;;;;;;9.05;8.10;;;9.80;57.10;;;;;;4945098;28;20427;-81
2023/04/24 00:27:23;;;;;;;8.45;7.65;;;9.80;57.20;;;;;;4943095;28;20289;-79
2023/04/24 00:29:50;;;;;;;8.15;7.35;;;9.80;57.20;;;;;;4937840;28;20031;-79
2023/04/24 00:32:17;;;;;;;8.15;7.35;;;9.70;57.10;;;;;;4948235;28;20049;-79
2023/04/24 00:34:43;;;;;;;8.65;7.85;;;9.70;57.20;;;;;;4955610;28;20037;-79
2023/04/24 00:37:09;;;;;;;8.80;8.00;;;9.60;57.00;;;;;;4937378;28;20395;-79
2023/04/24 00:39:36;;;;;;;8.07;7.35;;;9.60;57.10;;;;;;4930936;28;20110;-79
2023/04/24 00:42:02;;;;;;;8.57;7.78;;;9.60;57.10;;;;;;4946653;28;20044;-79
2023/04/24 00:44:28;;;;;;;9.18;7.75;;;9.60;57.20;;;;;;4957385;28;20074;-78
2023/04/24 00:46:55;;;;;;;7.50;6.60;;;9.50;57.00;;;;;;4959061;28;20213;-78
2023/04/24 00:49:22;;;;;;;8.57;7.82;;;9.50;57.10;;;;;;4941718;28;20039;-79
2023/04/24 00:51:49;;;;;;;8.23;7.20;;;9.50;57.10;;;;;;4931290;29;20335;-78
2023/04/24 00:54:15;;;;;;;8.05;7.28;;;9.50;57.20;;;;;;4951887;28;20126;-79
2023/04/24 00:56:42;;;;;;;7.95;7.22;;;9.50;57.20;;;;;;4943296;28;20043;-78
2023/04/24 00:59:10;;;;;;;8.70;7.30;;;9.50;57.20;;;;;;4936821;28;20043;-79
2023/04/24 01:01:36;;;;;;;7.43;6.78;;;9.40;57.10;;;;;;4948044;28;20045;-79
2023/04/24 01:04:03;;;;;;;7.72;6.90;;;9.40;57.10;;;;;;4943368;28;20547;-79
2023/04/24 01:06:30;;;;;;;7.55;6.85;;;9.40;57.10;;;;;;4944830;28;20376;-79
2023/04/24 01:08:59;;;;;;;7.50;6.75;;;9.40;57.20;;;;;;4939714;28;20042;-79
2023/04/24 01:11:25;;;;;;;8.82;7.10;;;9.30;57.00;;;;;;4948054;28;20531;-78
2023/04/24 01:13:51;;;;;;;9.60;7.30;;;9.30;57.00;;;;;;4945678;28;20070;-80
2023/04/24 01:16:20;;;;;;;7.97;7.25;;;9.30;57.10;;;;;;4958436;28;20096;-79
2023/04/24 01:18:47;;;;;;;8.10;7.05;;;9.30;57.10;;;;;;4934429;28;20040;-80
2023/04/24 01:21:16;;;;;;;7.88;7.13;;;9.30;57.20;;;;;;4958857;28;20042;-79
2023/04/24 01:23:46;;;;;;;8.95;6.72;;;9.30;57.20;;;;;;4942426;28;20067;-79
2023/04/24 01:26:14;;;;;;;8.05;7.25;;;9.20;57.10;;;;;;4939893;28;20491;-79
2023/04/24 01:28:40;;;;;;;7.18;6.32;;;9.20;57.10;;;;;;4946153;28;20400;-80
2023/04/24 01:31:06;;;;;;;7.85;7.05;;;9.20;57.10;;;;;;4943213;28;20062;-80
2023/04/24 01:33:32;;;;;;;7.78;6.30;;;9.10;57.00;;;;;;4945652;28;20309;-80
2023/04/24 01:35:59;;;;;;;6.93;6.22;;;9.10;57.00;;;;;;4948891;28;20031;-79
2023/04/24 01:38:25;;;;;;;7.43;6.78;;;9.10;57.00;;;;;;4937515;28;20078;-79
2023/04/24 01:40:52;;;;;;;7.10;6.40;;;9.10;57.10;;;;;;4949361;28;20054;-78
2023/04/24 01:43:19;;;;;;;8.15;6.78;;;9.00;57.00;;;;;;4963830;28;20085;-77
2023/04/24 01:45:45;;;;;;;7.85;7.10;;;9.00;57.00;;;;;;4956233;28;20045;-78
2023/04/24 01:48:12;;;;;;;7.00;6.30;;;9.00;57.00;;;;;;4948423;29;20039;-79
2023/04/24 01:50:39;;;;;;;7.15;6.45;;;9.00;57.10;;;;;;4949064;28;20043;-80
2023/04/24 01:53:05;;;;;;;7.88;6.65;;;9.00;57.10;;;;;;4965152;28;20500;-80
2023/04/24 01:55:31;;;;;;;7.60;6.70;;;8.90;57.00;;;;;;4958647;28;20035;-80
2023/04/24 01:57:59;;;;;;;7.43;6.72;;;8.90;57.10;;;;;;4965960;28;20041;-79
2023/04/24 02:00:25;;;;;;;8.60;7.03;;;8.90;57.10;;;;;;4968317;28;20085;-80
2023/04/24 02:02:52;;;;;;;7.10;6.38;;;8.90;57.10;;;;;;4959693;28;20046;-79
2023/04/24 02:05:19;;;;;;;7.95;6.43;;;8.90;57.20;;;;;;4959914;28;20229;-78
2023/04/24 02:07:44;;;;;;;10.07;6.75;;;8.80;57.00;;;;;;4961288;28;20134;-79
2023/04/24 02:10:11;;;;;;;7.43;6.47;;;8.80;57.10;;;;;;4948565;29;20149;-79
2023/04/24 02:12:41;;;;;;;7.55;5.97;;;8.80;57.10;;;;;;4946694;28;20054;-78
2023/04/24 02:15:08;;;;;;;9.00;6.70;;;8.80;57.10;;;;;;4950262;28;20031;-79
2023/04/24 02:17:36;;;;;;;7.57;6.85;;;8.80;57.10;;;;;;4947580;28;20043;-79
2023/04/24 02:20:05;;;;;;;7.97;7.18;;;8.80;57.10;;;;;;4940824;28;20055;-79
2023/04/24 02:22:31;;;;;;;7.60;6.47;;;8.80;57.20;;;;;;4950500;28;20031;-79
2023/04/24 02:25:01;;;;;;;7.18;6.47;;;8.80;57.20;;;;;;4947935;29;20155;-79
2023/04/24 02:27:27;;;;;;;7.97;6.47;;;8.80;57.20;;;;;;4949572;28;20082;-80
2023/04/24 02:29:53;;;;;;;8.02;6.85;;;8.80;57.20;;;;;;4959782;28;20074;-79
2023/04/24 02:32:19;;;;;;;7.55;6.75;;;8.70;57.10;;;;;;4942548;28;20035;-78
2023/04/24 02:34:45;;;;;;;7.50;6.80;;;8.70;57.20;;;;;;4930739;29;20431;-78
2023/04/24 02:37:12;;;;;;;8.85;7.00;;;8.70;57.20;;;;;;4941997;28;20063;-78
2023/04/24 02:39:38;;;;;;;7.13;6.43;;;8.70;57.20;;;;;;4946598;29;20036;-78
2023/04/24 02:42:07;;;;;;;7.28;6.50;;;8.70;57.80;;;;;;4947515;28;20129;-78
2023/04/24 02:44:34;;;;;;;7.18;6.35;;;8.60;57.10;;;;;;4948521;28;20105;-77
2023/04/24 02:47:00;;;;;;;7.25;6.28;;;8.60;57.20;;;;;;4947572;28;20142;-79
2023/04/24 02:49:26;;;;;;;7.55;6.85;;;8.60;57.30;;;;;;4943689;28;20062;-78
2023/04/24 02:51:53;;;;;;;7.35;6.65;;;8.60;57.30;;;;;;4946666;28;20050;-78
2023/04/24 02:54:19;;;;;;;7.00;5.57;;;8.60;57.40;;;;;;4962733;28;20030;-78
2023/04/24 02:56:45;;;;;;;7.90;6.75;;;8.50;57.20;;;;;;4968407;28;20059;-78
2023/04/24 02:59:11;;;;;;;8.95;7.03;;;8.50;57.30;;;;;;4961028;28;20769;-78
2023/04/24 03:01:37;;;;;;;7.18;6.53;;;8.60;57.50;;;;;;4966699;28;20046;-77
2023/04/24 03:04:03;;;;;;;7.28;6.57;;;8.50;57.30;;;;;;4955110;28;20031;-78
2023/04/24 03:06:31;;;;;;;7.18;6.28;;;8.50;57.30;;;;;;4953990;28;20038;-77
2023/04/24 03:08:57;;;;;;;7.55;6.72;;;8.50;57.40;;;;;;4988145;28;20019;-78
2023/04/24 03:11:22;;;;;;;7.47;6.78;;;8.50;57.40;;;;;;4981593;28;20034;-78
2023/04/24 03:13:48;;;;;;;7.10;6.43;;;8.60;57.60;;;;;;4988761;28;20058;-77
2023/04/24 03:16:14;;;;;;;7.43;6.75;;;8.60;57.60;;;;;;4993120;28;20090;-78
2023/04/24 03:18:40;;;;;;;6.85;6.20;;;8.50;58.00;;;;;;4982746;28;20083;-77
2023/04/24 03:21:08;;;;;;;6.65;6.00;;;8.60;57.60;;;;;;4976518;28;20039;-78
2023/04/24 03:23:34;;;;;;;8.90;6.55;;;8.50;57.40;;;;;;4993676;28;20018;-78
2023/04/24 03:26:00;;;;;;;7.90;7.10;;;8.60;57.70;;;;;;4954230;29;20035;-79
2023/04/24 03:28:26;;;;;;;6.70;6.05;;;8.60;57.70;;;;;;4969314;28;20062;-78
2023/04/24 03:30:59;;;;;;;7.22;6.53;;;8.60;57.70;;;;;;4956119;28;20492;-78
2023/04/24 03:33:29;;;;;;;7.28;6.55;;;8.60;57.70;;;;;;4943903;29;20044;-79
2023/04/24 03:35:59;;;;;;;7.75;7.05;;;8.60;57.70;;;;;;4927043;29;20039;-79
2023/04/24 03:38:27;;;;;;;7.78;6.97;;;8.60;57.70;;;;;;4943595;29;20264;-79
2023/04/24 03:41:02;;;;;;;7.20;6.50;;;8.60;57.80;;;;;;4946230;28;20142;-78
2023/04/24 03:43:37;;;;;;;7.65;6.75;;;8.60;57.70;;;;;;4948021;28;20483;-79
2023/04/24 03:46:05;;;;;;;8.00;6.95;;;8.70;57.90;;;;;;4946542;28;20526;-79
2023/04/24 03:48:35;;;;;;;8.32;7.25;;;8.70;58.00;;;;;;4962587;28;20039;-79
2023/04/24 03:51:01;;;;;;;7.35;6.65;;;8.60;57.80;;;;;;4930959;29;20039;-80
2023/04/24 03:53:35;;;;;;;7.60;6.80;;;8.60;58.10;;;;;;4956429;28;20085;-79
2023/04/24 03:56:01;;;;;;;7.65;6.95;;;8.70;58.10;;;;;;4959944;28;20027;-80
2023/04/24 03:58:29;;;;;;;8.13;7.38;;;8.70;58.10;;;;;;4964246;28;20097;-79
2023/04/24 04:00:57;;;;;;;8.20;7.35;;;8.70;58.10;;;;;;4977225;28;20130;-78
2023/04/24 04:03:38;;;;;;;;;;;8.70;58.10;;;;;;4947238;28;20141;-79
2023/04/24 04:06:05;;;;;;;8.20;6.95;;;8.70;58.00;;;;;;4965773;28;19910;-79
2023/04/24 04:08:31;;;;;;;8.88;7.68;;;8.70;57.80;;;;;;4953746;28;20057;-79
2023/04/24 04:10:58;;;;;;;8.60;6.95;;;8.70;57.90;;;;;;4948748;28;20035;-80
2023/04/24 04:13:24;;;;;;;8.05;7.25;;;8.70;58.00;;;;;;4968961;28;20045;-79
2023/04/24 04:15:50;;;;;;;8.35;7.55;;;8.70;58.10;;;;;;4964076;28;20421;-78
2023/04/24 04:18:16;;;;;;;9.40;8.50;;;8.60;57.90;;;;;;4957448;28;20039;-82
2023/04/24 04:20:43;;;;;;;8.38;7.57;;;8.60;58.00;;;;;;4947025;29;20137;-79
2023/04/24 04:23:11;;;;;;;8.23;7.43;;;8.60;58.10;;;;;;4945855;28;20027;-79
2023/04/24 04:25:51;;;;;;;11.27;10.18;;;8.60;58.10;;;;;;4946537;29;20043;-79
2023/04/24 04:28:21;;;;;;;9.52;8.52;;;8.50;58.00;;;;;;4945992;29;20507;-78
2023/04/24 04:30:48;;;;;;;9.10;8.20;;;8.50;58.00;;;;;;4946832;28;20055;-78
2023/04/24 04:33:14;;;;;;;9.10;8.30;;;8.50;58.10;;;;;;4945716;29;20039;-77
2023/04/24 04:35:42;;;;;;;8.48;7.78;;;8.50;58.20;;;;;;4946759;29;20094;-78
2023/04/24 04:38:10;;;;;;;8.85;8.05;;;8.40;58.10;;;;;;4940102;29;20463;-77
2023/04/24 04:41:02;;;;;;;9.68;8.73;;;8.40;58.10;;;;;;4945580;28;20055;-79
2023/04/24 04:43:33;;;;;;;9.85;7.82;;;8.40;58.20;;;;;;4945595;28;20039;-77
2023/04/24 04:46:00;;;;;;;9.35;8.43;;;8.40;58.20;;;;;;4946903;29;20114;-78
2023/04/24 04:49:02;;;;;;;8.57;7.63;;;8.40;58.30;;;;;;4933961;28;20035;-79
2023/04/24 04:51:29;;;;;;;10.32;8.38;;;8.30;58.20;;;;;;4942018;29;20669;-79
2023/04/24 04:53:55;;;;;;;9.10;7.82;;;8.30;58.20;;;;;;4943229;28;20122;-79
2023/04/24 04:56:23;;;;;;;9.82;8.93;;;8.30;58.20;;;;;;4945852;28;20414;-78
2023/04/24 04:58:49;;;;;;;10.02;9.02;;;8.30;58.30;;;;;;4944714;28;20486;-78
2023/04/24 05:01:17;;;;;;;9.68;8.68;;;8.20;58.80;;;;;;4939728;29;20066;-78
2023/04/24 05:03:46;;;;;;;8.43;7.63;;;8.30;58.40;;;;;;4938409;28;20023;-78
2023/04/24 05:06:15;;;;;;;9.15;8.25;;;8.20;58.20;;;;;;4940219;28;20031;-79
2023/04/24 05:08:41;;;;;;;10.43;8.38;;;8.20;58.30;;;;;;4937785;28;20036;-80
2023/04/24 05:11:18;;;;;;;8.88;8.07;;;8.20;58.30;;;;;;4926542;29;20063;-79
2023/04/24 05:13:46;;;;;;;10.65;8.98;;;8.20;58.40;;;;;;4947853;28;20039;-80
2023/04/24 05:16:17;;;;;;;9.32;8.43;;;8.20;58.40;;;;;;4939346;28;20050;-80
2023/04/24 05:18:45;;;;;;;9.38;8.50;;;8.20;58.40;;;;;;4960938;28;20042;-79
2023/04/24 05:21:14;;;;;;;10.30;8.60;;;8.20;58.40;;;;;;4929487;29;20525;-80
2023/04/24 05:23:43;;;;;;;9.40;8.50;;;8.20;58.40;;;;;;4943227;28;20335;-80
2023/04/24 05:26:10;;;;;;;10.18;9.07;;;8.20;58.40;;;;;;4957007;28;20035;-78
2023/04/24 05:28:36;;;;;;;10.23;9.15;;;8.30;58.60;;;;;;4942468;28;20031;-77
2023/04/24 05:31:07;;;;;;;9.10;8.27;;;8.30;58.50;;;;;;4939219;29;20070;-78
2023/04/24 05:33:34;;;;;;;9.38;8.48;;;8.40;58.60;;;;;;4940555;28;20038;-77
2023/04/24 05:36:00;;;;;;;9.35;8.13;;;8.40;58.50;;;;;;4943506;28;20045;-77
2023/04/24 05:38:26;;;;;;;9.63;8.57;;;8.50;58.70;;;;;;4937374;28;20097;-79
2023/04/24 05:40:52;;;;;;;9.45;8.50;;;8.60;58.80;;;;;;4935868;28;20035;-79
2023/04/24 05:43:18;;;;;;;9.75;8.82;;;8.60;58.70;;;;;;4945803;28;20086;-79
2023/04/24 05:45:44;;;;;;;10.23;9.25;;;8.70;58.80;;;;;;4938419;29;20046;-78
2023/04/24 05:48:10;;;;;;;9.85;8.85;;;8.70;58.80;;;;;;4939798;28;20047;-79
2023/04/24 05:50:36;;;;;;;11.40;8.68;;;8.80;58.90;;;;;;4939714;28;20094;-79
2023/04/24 05:53:03;;;;;;;10.18;8.90;;;8.80;58.80;;;;;;4946351;28;20101;-79
2023/04/24 05:55:33;;;;;;;10.48;8.60;;;8.90;58.90;;;;;;4943433;28;20051;-79
2023/04/24 05:57:59;;;;;;;11.65;10.52;;;8.90;58.80;;;;;;4934575;28;20031;-80
2023/04/24 06:00:26;;;;;;;12.40;10.65;;;9.00;59.10;;;;;;4938813;28;20054;-81
2023/04/24 06:03:00;;;;;;;11.68;10.48;;;9.00;59.00;;;;;;4930088;28;20122;-83
2023/04/24 06:05:27;;;;;;;13.63;12.25;;;9.10;59.10;;;;;;4930895;28;20522;-82
2023/04/24 06:07:53;;;;;;;12.23;11.02;;;9.10;59.10;;;;;;4935170;28;20030;-83
2023/04/24 06:10:21;;;;;;;11.95;10.73;;;9.10;59.10;;;;;;4935569;28;20058;-79
2023/04/24 06:12:47;;;;;;;11.35;10.13;;;9.20;59.30;;;;;;4928090;28;20035;-78
2023/04/24 06:15:16;;;;;;;10.05;8.85;;;9.20;59.30;;;;;;4933260;28;20031;-77
2023/04/24 06:18:03;;;;;;;10.63;9.45;;;9.30;59.50;;;;;;4930440;28;20058;-78
2023/04/24 06:20:29;;;;;;;12.25;9.90;;;9.40;59.60;;;;;;4942929;28;20039;-78
2023/04/24 06:22:55;;;;;;;11.23;10.07;;;9.40;59.50;;;;;;4940859;28;20094;-78
2023/04/24 06:25:20;;;;;;;11.20;9.88;;;9.60;59.90;;;;;;4940575;28;20418;-77
2023/04/24 06:27:46;;;;;;;10.82;9.23;;;9.60;59.80;;;;;;4934989;28;20097;-77
2023/04/24 06:30:12;;;;;;;12.93;10.30;;;9.60;59.70;;;;;;4935319;28;20027;-81
2023/04/24 06:32:39;;;;;;;12.20;9.88;;;9.60;59.80;;;;;;4935764;28;20487;-80
2023/04/24 06:35:07;;;;;;;10.90;9.80;;;9.60;59.90;;;;;;4948874;28;20546;-80
2023/04/24 06:37:33;;;;;;;11.00;9.90;;;9.70;60.20;;;;;;4924399;28;20039;-79
2023/04/24 06:39:59;;;;;;;12.10;10.45;;;9.70;60.30;;;;;;4934525;28;20121;-80
2023/04/24 06:42:25;;;;;;;11.27;10.18;;;9.70;60.50;;;;;;4934637;28;20035;-80
2023/04/24 06:44:51;;;;;;;12.73;11.45;;;9.70;60.60;;;;;;4930245;28;20094;-79
2023/04/24 06:47:18;;;;;;;12.48;11.20;;;9.70;60.70;;;;;;4936450;28;20055;-82
2023/04/24 06:49:44;;;;;;;12.43;10.40;;;9.80;61.00;;;;;;4938153;28;20034;-78
2023/04/24 06:52:10;;;;;;;11.82;10.73;;;9.90;61.20;;;;;;4937555;28;20039;-78
2023/04/24 06:54:36;;;;;;;11.77;10.63;;;9.90;61.20;;;;;;4936602;28;20031;-77
2023/04/24 06:57:02;;;;;;;12.38;11.18;;;10.00;61.30;;;;;;4933056;28;20045;-77
2023/04/24 06:59:29;;;;;;;12.95;11.57;;;10.10;61.40;;;;;;4937755;28;20034;-77
2023/04/24 07:01:57;;;;;;;11.52;10.43;;;10.20;61.40;;;;;;4941350;28;20039;-77
2023/04/24 07:04:24;;;;;;;10.95;9.88;;;10.30;61.50;;;;;;4936249;28;20076;-78
2023/04/24 07:06:51;;;;;;;12.40;11.10;;;10.30;61.40;;;;;;4940060;28;20042;-79
2023/04/24 07:09:18;;;;;;;11.43;10.23;;;10.30;61.50;;;;;;4939217;28;20131;-81
2023/04/24 07:11:45;;;;;;;12.43;11.05;;;10.30;61.60;;;;;;4937447;28;20104;-80
2023/04/24 07:14:12;;;;;;;13.57;12.07;;;10.30;61.70;;;;;;4954171;28;20098;-79
2023/04/24 07:16:38;;;;;;;13.32;12.02;;;10.40;61.90;;;;;;4930003;28;20129;-79
2023/04/24 07:19:04;;;;;;;11.60;10.60;;;10.40;62.00;;;;;;4938077;28;20038;-79
2023/04/24 07:21:31;;;;;;;13.55;11.93;;;10.50;62.10;;;;;;4937440;28;20499;-79
2023/04/24 07:24:00;;;;;;;13.15;11.73;;;10.60;62.10;;;;;;4938889;28;20538;-80
2023/04/24 07:26:28;;;;;;;11.68;10.23;;;10.70;62.10;;;;;;4935828;28;20043;-80
2023/04/24 07:28:54;;;;;;;11.27;10.00;;;10.90;62.30;;;;;;4934311;28;20879;-79
2023/04/24 07:31:20;;;;;;;12.02;9.60;;;11.10;62.40;;;;;;4937055;28;20066;-79
2023/04/24 07:33:46;;;;;;;10.85;9.73;;;11.40;62.60;;;;;;4938278;28;20806;-80
2023/04/24 07:36:16;;;;;;;11.75;10.65;;;11.60;62.20;;;;;;4939451;28;20106;-79
2023/04/24 07:38:42;;;;;;;11.07;9.95;;;11.90;62.30;;;;;;4942521;28;20491;-78
2023/04/24 07:41:08;;;;;;;11.52;10.43;;;12.10;62.20;;;;;;4939913;28;20050;-81
2023/04/24 07:43:34;;;;;;;12.35;10.60;;;12.30;62.10;;;;;;4939646;28;20035;-80
2023/04/24 07:46:01;;;;;;;11.90;10.00;;;12.40;62.10;;;;;;4943008;28;20065;-79
2023/04/24 07:48:27;;;;;;;10.40;9.40;;;12.40;61.90;;;;;;4930748;28;20039;-78
2023/04/24 07:50:53;;;;;;;11.27;9.93;;;12.50;62.10;;;;;;4938253;28;20518;-82
2023/04/24 07:53:19;;;;;;;10.73;9.70;;;12.40;62.00;;;;;;4937428;28;20062;-80
2023/04/24 07:55:45;;;;;;;11.10;10.02;;;12.40;62.10;;;;;;4935543;28;20074;-79
2023/04/24 07:58:11;;;;;;;11.90;10.13;;;12.40;62.20;;;;;;4934347;28;20039;-78
2023/04/24 08:00:37;;;;;;;13.50;10.38;;;12.30;62.30;;;;;;4939182;28;20043;-78
2023/04/24 08:03:03;;;;;;;13.27;10.40;;;12.30;62.40;;;;;;4937170;28;20039;-79
2023/04/24 08:05:30;;;;;;;11.63;10.52;;;12.30;62.50;;;;;;4934032;28;20514;-78
2023/04/24 08:07:56;;;;;;;12.68;11.10;;;12.30;62.60;;;;;;4932550;28;20538;-79
2023/04/24 08:10:22;;;;;;;11.35;10.18;;;12.20;62.40;;;;;;4934148;28;20027;-79
2023/04/24 08:12:49;;;;;;;13.13;10.23;;;12.10;62.40;;;;;;4933347;28;20032;-79
2023/04/24 08:15:15;;;;;;;14.05;10.80;;;12.10;62.60;;;;;;4936894;28;20769;-79
2023/04/24 08:17:41;;;;;;;12.85;11.18;;;12.10;62.60;;;;;;4937484;28;20042;-79
2023/04/24 08:20:13;;;;;;;12.93;11.25;;;12.10;62.70;;;;;;4930394;28;20161;-79
2023/04/24 08:22:43;;;;;;;14.15;12.20;;;12.10;62.60;;;;;;4936760;28;20750;-80
2023/04/24 08:25:10;;;;;;;12.30;10.77;;;12.10;62.60;;;;;;4934430;28;20035;-79
2023/04/24 08:27:36;;;;;;;14.02;11.85;;;12.00;62.30;;;;;;4934527;28;20050;-79
2023/04/24 08:30:04;;;;;;;13.88;11.63;;;12.00;62.30;;;;;;4934904;28;20051;-78
2023/04/24 08:32:30;;;;;;;12.05;10.80;;;11.90;62.20;;;;;;4935797;28;20035;-79
2023/04/24 08:34:57;;;;;;;13.40;11.38;;;11.90;62.40;;;;;;4933046;28;20161;-79
2023/04/24 08:37:26;;;;;;;13.70;11.13;;;11.80;62.30;;;;;;4937458;28;20043;-79
2023/04/24 08:39:53;;;;;;;14.20;12.70;;;11.80;62.50;;;;;;4933660;28;20427;-78
2023/04/24 08:42:20;;;;;;;14.60;12.20;;;11.70;62.50;;;;;;4946707;28;20015;-79
2023/04/24 08:44:49;;;;;;;13.85;12.13;;;11.70;62.70;;;;;;4959512;28;20422;-79
2023/04/24 08:47:15;;;;;;;13.55;11.98;;;11.60;62.60;;;;;;4958520;28;20039;-79
2023/04/24 08:49:42;;;;;;;12.80;11.52;;;11.60;62.70;;;;;;4957325;28;20101;-79
2023/04/24 08:52:09;;;;;;;15.52;13.13;;;11.60;62.70;;;;;;4966841;28;20019;-80
2023/04/24 08:54:36;;;;;;;14.27;12.82;;;11.50;62.60;;;;;;4975564;28;20027;-81
2023/04/24 08:57:03;;;;;;;14.05;11.55;;;11.60;62.90;;;;;;4960008;28;20502;-79
2023/04/24 08:59:30;;;;;;;12.23;11.05;;;11.50;62.80;;;;;;4947431;28;20047;-78
2023/04/24 09:01:57;;;;;;;13.02;11.38;;;11.40;62.70;;;;;;4937370;28;20079;-84
2023/04/24 09:04:24;;;;;;;13.85;10.57;;;11.40;62.80;;;;;;4942559;28;20034;-79
2023/04/24 09:06:58;;;;;;;17.13;12.82;;;11.40;62.90;;;;;;4935466;28;20621;-78
2023/04/24 09:09:25;;;;;;;12.38;10.52;;;11.30;62.80;;;;;;4939187;28;20069;-78
2023/04/24 09:11:54;;;;;;;13.02;11.25;;;11.30;62.90;;;;;;4940806;28;20043;-78
2023/04/24 09:14:20;;;;;;;10.68;9.25;;;11.20;62.80;;;;;;4959517;28;20110;-78
2023/04/24 09:16:48;;;;;;;9.82;8.82;;;11.20;62.80;;;;;;4937686;28;20042;-77
2023/04/24 09:19:14;;;;;;;13.07;9.35;;;11.10;62.70;;;;;;4937463;28;20039;-78
2023/04/24 09:21:41;;;;;;;11.90;8.63;;;11.10;62.80;;;;;;4936060;28;20395;-78
2023/04/24 09:24:20;;;;;;;9.77;8.35;;;11.00;62.70;;;;;;4941305;28;20035;-80
2023/04/24 09:26:46;;;;;;;7.43;6.65;;;11.00;62.70;;;;;;4934441;28;20487;-79
2023/04/24 09:29:16;;;;;;;8.85;6.55;;;11.00;62.70;;;;;;4936407;28;20395;-79
2023/04/24 09:31:44;;;;;;;8.32;6.53;;;10.90;62.50;;;;;;4946776;28;20034;-76
2023/04/24 09:34:09;;;;;;;9.60;7.70;;;11.00;62.60;;;;;;4943962;28;20518;-76
2023/04/24 09:36:37;;;;;;;9.30;8.15;;;11.00;62.60;;;;;;4941731;28;20122;-77
2023/04/24 09:39:08;;;;;;;9.85;8.85;;;11.10;62.60;;;;;;4932623;28;20549;-77
2023/04/24 09:41:34;;;;;;;11.77;10.57;;;11.10;62.60;;;;;;4936332;28;20097;-77
2023/04/24 09:44:24;;;;;;;9.00;8.10;;;11.10;62.50;;;;;;4939274;28;20050;-76
2023/04/24 09:46:52;;;;;;;9.20;8.30;;;11.20;62.70;;;;;;4932672;29;20058;-77
2023/04/24 09:49:26;;;;;;;8.73;7.90;;;11.20;62.60;;;;;;4941104;28;20483;-76
2023/04/24 09:52:10;;;;;;;7.65;6.95;;;11.20;62.60;;;;;;4943052;28;20090;-77
2023/04/24 09:54:37;;;;;;;11.98;10.20;;;11.10;62.50;;;;;;4940214;28;20043;-77
2023/04/24 09:57:03;;;;;;;9.73;8.30;;;11.10;62.50;;;;;;4942269;28;20803;-77
2023/04/24 09:59:30;;;;;;;10.05;8.55;;;11.20;62.80;;;;;;4937400;28;20043;-77
2023/04/24 10:01:58;;;;;;;10.63;9.15;;;11.20;62.80;;;;;;4938279;28;20039;-77
2023/04/24 10:04:28;;;;;;;10.32;9.32;;;11.20;62.80;;;;;;4938205;28;20779;-77
2023/04/24 10:06:57;;;;;;;12.77;10.82;;;11.30;62.90;;;;;;4938969;28;20027;-77
2023/04/24 10:09:25;;;;;;;9.75;8.80;;;11.40;62.90;;;;;;4936204;28;20042;-78
2023/04/24 10:11:53;;;;;;;9.13;7.88;;;11.50;62.90;;;;;;4937477;28;20118;-77
2023/04/24 10:14:23;;;;;;;10.57;9.52;;;11.60;62.80;;;;;;4937578;28;20046;-77
2023/04/24 10:16:52;;;;;;;8.90;8.10;;;11.60;62.60;;;;;;4940267;28;20129;-77
2023/04/24 10:19:18;;;;;;;10.48;9.40;;;11.60;62.50;;;;;;4938696;28;20500;-78
2023/04/24 10:21:48;;;;;;;10.40;9.13;;;11.60;62.60;;;;;;4940542;28;20047;-78
2023/04/24 10:24:15;;;;;;;10.00;8.88;;;11.50;62.50;;;;;;4936353;28;20039;-78
2023/04/24 10:26:42;;;;;;;11.88;8.48;;;11.50;62.70;;;;;;4939542;28;20087;-79
2023/04/24 10:29:11;;;;;;;10.00;8.95;;;11.50;62.70;;;;;;4938208;28;20062;-79
2023/04/24 10:31:38;;;;;;;13.45;10.23;;;11.40;62.60;;;;;;4937874;28;20122;-80
2023/04/24 10:34:08;;;;;;;10.23;9.00;;;11.40;62.60;;;;;;4937237;28;20043;-79
2023/04/24 10:36:37;;;;;;;11.55;10.35;;;11.40;62.70;;;;;;4939498;28;20512;-78
2023/04/24 10:39:06;;;;;;;10.85;9.57;;;11.40;62.70;;;;;;4935517;28;20711;-79
2023/04/24 10:41:32;;;;;;;10.13;9.18;;;11.50;62.80;;;;;;4939647;28;20047;-79
2023/04/24 10:44:15;;;;;;;12.38;11.20;;;11.60;62.80;;;;;;4943832;28;20393;-81
2023/04/24 10:46:46;;;;;;;;;;;11.70;63.00;;;;;;4946466;28;20050;-77
2023/04/24 10:49:12;;;;;;;11.93;10.82;;;11.70;62.70;;;;;;4938207;28;20017;-78
2023/04/24 10:51:50;;;;;;;12.90;11.70;;;11.80;62.50;;;;;;4930394;28;20567;-77
2023/04/24 10:54:33;;;;;;;11.20;10.20;;;11.80;62.40;;;;;;4925488;28;20027;-79
2023/04/24 10:57:24;;;;;;;11.27;10.15;;;11.80;62.40;;;;;;4941303;28;20074;-77
2023/04/24 11:00:12;;;;;;;11.73;10.15;;;11.80;62.50;;;;;;4935830;28;20159;-78
2023/04/24 11:02:43;;;;;;;10.25;9.25;;;11.70;62.60;;;;;;4952176;28;20039;-79
2023/04/24 11:05:10;;;;;;;9.77;8.88;;;11.80;63.00;;;;;;4940652;28;20035;-78
2023/04/24 11:08:16;;;;;;;9.05;8.15;;;11.80;63.10;;;;;;4936767;28;20036;-79
2023/04/24 11:10:47;;;;;;;9.18;8.30;;;11.90;63.40;;;;;;4937719;28;20129;-78
2023/04/24 11:13:16;;;;;;;11.60;8.50;;;12.00;63.20;;;;;;4934428;28;20035;-79
2023/04/24 11:15:42;;;;;;;8.40;7.57;;;12.10;63.30;;;;;;4938182;28;20783;-78
2023/04/24 11:18:18;;;;;;;7.00;6.28;;;12.10;63.30;;;;;;4939101;28;20505;-78
2023/04/24 11:20:46;;;;;;;6.47;5.88;;;12.10;63.30;;;;;;4938366;28;20696;-78
2023/04/24 11:23:13;;;;;;;6.63;6.05;;;12.20;63.40;;;;;;4946736;28;20085;-76
2023/04/24 11:25:41;;;;;;;6.38;5.78;;;12.20;63.90;;;;;;4934472;28;20046;-77
2023/04/24 11:28:07;;;;;;;6.70;5.43;;;12.30;63.50;;;;;;4936241;28;20038;-78
2023/04/24 11:30:33;;;;;;;6.13;5.63;;;12.40;63.50;;;;;;4934133;29;20867;-78
2023/04/24 11:33:04;;;;;;;5.85;5.20;;;12.60;63.70;;;;;;4935335;28;20066;-78
2023/04/24 11:35:37;;;;;;;5.57;5.07;;;12.90;63.80;;;;;;4939140;28;20122;-79
2023/04/24 11:38:04;;;;;;;6.15;5.53;;;13.10;63.60;;;;;;4932057;28;20035;-78
2023/04/24 11:40:30;;;;;;;6.03;5.47;;;13.30;63.30;;;;;;4936561;28;20039;-77
2023/04/24 11:42:55;;;;;;;5.45;4.95;;;13.50;63.20;;;;;;4937184;28;20105;-82
2023/04/24 11:45:31;;;;;;;5.68;5.13;;;13.60;63.10;;;;;;4940303;28;20038;-77
2023/04/24 11:47:58;;;;;;;5.93;5.40;;;13.80;63.20;;;;;;4937718;28;20167;-78
2023/04/24 11:50:27;;;;;;;5.68;5.15;;;13.80;63.00;;;;;;4938324;28;20118;-77
2023/04/24 11:52:53;;;;;;;16.40;5.30;;;13.90;63.00;;;;;;4936426;28;20030;-77
2023/04/24 11:55:19;;;;;;;6.35;5.15;;;14.10;63.20;;;;;;4937467;28;20043;-77
2023/04/24 11:57:51;;;;;;;5.68;5.18;;;14.20;63.20;;;;;;4933379;28;20063;-78
2023/04/24 12:00:24;;;;;;;4.78;4.30;;;14.30;63.20;;;;;;4934965;28;20043;-78
2023/04/24 12:02:51;;;;;;;5.28;4.88;;;14.40;63.10;;;;;;4941826;28;20146;-78
2023/04/24 12:05:25;;;;;;;5.18;4.30;;;14.50;63.10;;;;;;4932071;28;20031;-78
2023/04/24 12:07:52;;;;;;;5.43;4.93;;;14.50;63.00;;;;;;4918562;28;20039;-77
2023/04/24 12:10:26;;;;;;;5.95;5.45;;;14.60;63.10;;;;;;4921193;28;20035;-79
2023/04/24 12:12:55;;;;;;;5.70;5.18;;;14.70;63.10;;;;;;4925032;28;20089;-78
2023/04/24 12:15:22;;;;;;;6.20;5.60;;;14.80;63.00;;;;;;4927656;28;20039;-79
2023/04/24 12:17:50;;;;;;;5.32;4.82;;;14.90;63.00;;;;;;4926419;28;20027;-77
2023/04/24 12:20:16;;;;;;;6.15;5.57;;;15.10;62.90;;;;;;4912401;28;20079;-78
2023/04/24 12:22:51;;;;;;;5.15;4.75;;;15.30;62.90;;;;;;4928595;28;20035;-78
2023/04/24 12:25:19;;;;;;;4.57;4.18;;;15.50;62.80;;;;;;4928532;28;20035;-78
2023/04/24 12:27:46;;;;;;;3.95;3.65;;;15.80;63.20;;;;;;4923428;28;20031;-78
2023/04/24 12:30:16;;;;;;;4.22;3.83;;;16.10;62.50;;;;;;4927813;28;20032;-77
2023/04/24 12:32:47;;;;;;;3.40;3.10;;;16.30;62.20;;;;;;4927510;28;20039;-76
2023/04/24 12:35:20;;;;;;;3.50;3.20;;;16.60;62.20;;;;;;4927348;28;20095;-79
2023/04/24 12:37:46;;;;;;;3.25;2.95;;;16.80;62.60;;;;;;4926415;28;20047;-78
2023/04/24 12:40:13;;;;;;;2.80;2.60;;;17.10;61.90;;;;;;4925455;28;20043;-78
2023/04/24 12:42:50;;;;;;;3.92;3.40;;;17.30;61.60;;;;;;4928676;28;20038;-78
2023/04/24 12:45:18;;;;;;;3.55;3.10;;;17.50;61.30;;;;;;4928576;28;20042;-77
2023/04/24 12:47:45;;;;;;;3.40;3.10;;;17.70;61.20;;;;;;4926540;28;20069;-77
2023/04/24 12:50:13;;;;;;;3.33;2.95;;;17.80;61.00;;;;;;4928631;28;20511;-77